Seamaster — ZMV7638 — position and weather

sailwx.info

Track history (hours):
 
Tides and Currents Weather Stations Pressure Air Temp Water Temp Dewpoint Dewpoint Depression Visibility Wind Speed Wind Dir Waves Ship Positions

Seamaster

Last reported at 2014-Oct-20 05:12 UTC. Time now 2014-Oct-20 09:59 UTC.
Position S 36°53' E 174°54'.

Length 44 m.

Type: Passenger vessel. MMSI: 512001027.

Date/timePositionNaut miles runAvg speedWind from/ knotsBaromVisibWave heightAir tempDewpointWater temp
2014-Oct-20 05:12S 36°53' E 174°54'1 1.2
2014-Oct-20 04:33S 36°52' E 174°54'1 0.6
2014-Oct-20 02:23S 36°51' E 174°54'1 0.8
2014-Oct-20 01:33S 36°51' E 174°54'0 0.0
2014-Oct-19 22:29S 36°52' E 174°54'1 0.3
2014-Oct-19 19:17S 36°51' E 174°54'1 0.3
2014-Oct-19 17:15S 36°51' E 174°54'0 0.0
2014-Oct-19 04:28S 36°52' E 174°54'0 0.2
2014-Oct-19 02:13S 36°51' E 174°54'0 0.3
2014-Oct-19 01:28S 36°52' E 174°54'0 0.2
2014-Oct-18 23:20S 36°51' E 174°54'1 1.0
2014-Oct-18 22:30S 36°52' E 174°54'3 0.6
2014-Oct-18 17:33S 36°50' E 174°57'3 0.2
2014-Oct-18 04:18S 36°51' E 174°54'2 1.2
2014-Oct-18 02:29S 36°50' E 174°56'2 2.1
2014-Oct-18 01:24S 36°52' E 174°54'1 0.5
2014-Oct-17 23:14S 36°51' E 174°54'1 1.0
2014-Oct-17 22:26S 36°52' E 174°54'0 0.0
2014-Oct-17 04:33S 36°52' E 174°54'1 0.3
2014-Oct-17 02:16S 36°51' E 174°54'2 2.4
2014-Oct-17 01:33S 36°53' E 174°54'2 0.9
2014-Oct-16 23:21S 36°51' E 174°54'1 1.8
2014-Oct-16 22:32S 36°52' E 174°54'1 0.4
2014-Oct-16 20:17S 36°51' E 174°54'1 0.8
2014-Oct-16 19:28S 36°52' E 174°54'1 0.1
2014-Oct-16 01:22S 36°51' E 174°54'1 0.3
2014-Oct-15 23:18S 36°51' E 174°54'0 0.4
2014-Oct-15 22:30S 36°52' E 174°54'0 0.2
2014-Oct-15 20:25S 36°51' E 174°53'1 0.8
2014-Oct-15 19:27S 36°52' E 174°54'1 0.3
2014-Oct-15 17:16S 36°51' E 174°54'0 0.0
2014-Oct-15 02:15S 36°51' E 174°54'1 0.4
2014-Oct-15 00:31S 36°52' E 174°54'8 8.8
2014-Oct-14 23:34S 36°44' E 174°57'2 2.1
2014-Oct-14 22:24S 36°46' E 174°56'6 7.2
2014-Oct-14 21:33S 36°52' E 174°54'0 0.0
2014-Oct-14 19:32S 36°52' E 174°54'6 4.5
2014-Oct-14 18:13S 36°49' E 175°01'6 8.8
2014-Oct-14 17:29S 36°50' E 174°53'3 3.2
2014-Oct-14 16:31S 36°53' E 174°54'1 0.1
2014-Oct-14 07:33S 36°52' E 174°54'5 4.8
2014-Oct-14 06:32S 36°47' E 174°54'1 1.2
2014-Oct-14 05:32S 36°48' E 174°54'4 3.8
2014-Oct-14 04:32S 36°52' E 174°54'3 1.3
2014-Oct-14 02:32S 36°50' E 174°56'3 2.5
2014-Oct-14 01:29S 36°52' E 174°54'3 1.3
2014-Oct-13 23:32S 36°50' E 174°56'3 2.9
2014-Oct-13 22:28S 36°53' E 174°54'3 1.4
2014-Oct-13 20:33S 36°50' E 174°56'3 2.6
2014-Oct-13 19:33S 36°53' E 174°54'6 4.8
2014-Oct-13 18:14S 36°49' E 175°01'7 9.2
2014-Oct-13 17:31S 36°50' E 174°53'3 2.6
2014-Oct-13 16:23S 36°53' E 174°54'0 0.0
2014-Oct-13 04:33S 36°53' E 174°54'3 1.6
2014-Oct-13 02:33S 36°50' E 174°57'3 2.9
2014-Oct-13 01:30S 36°52' E 174°54'0 0.1
2014-Oct-12 22:27S 36°52' E 174°54'1 0.6
2014-Oct-12 20:25S 36°51' E 174°54'1 1.4
2014-Oct-12 19:31S 36°52' E 174°54'6 4.3
2014-Oct-12 18:10S 36°49' E 175°00'6 9.0
2014-Oct-12 17:29S 36°50' E 174°53'1 0.1
2014-Oct-12 04:33S 36°51' E 174°53'1 0.3
2014-Oct-12 02:19S 36°51' E 174°54'1 1.9
2014-Oct-12 01:32S 36°52' E 174°54'1 0.5
2014-Oct-11 23:16S 36°51' E 174°53'1 1.9
2014-Oct-11 22:31S 36°52' E 174°54'2 0.7
2014-Oct-11 20:19S 36°51' E 174°54'2 2.0
2014-Oct-11 19:31S 36°53' E 174°54'2 0.8
2014-Oct-11 17:21S 36°51' E 174°54'1 0.0
2014-Oct-11 04:33S 36°51' E 174°53'6 4.4
2014-Oct-11 03:08S 36°49' E 175°00'6 8.9
2014-Oct-11 02:26S 36°50' E 174°53'2 2.5
2014-Oct-11 01:28S 36°52' E 174°54'1 0.5
2014-Oct-10 23:14S 36°51' E 174°53'1 2.0
2014-Oct-10 22:29S 36°52' E 174°54'3 1.3
2014-Oct-10 20:29S 36°50' E 174°56'3 2.8
2014-Oct-10 19:32S 36°53' E 174°54'1 0.6
2014-Oct-10 17:21S 36°51' E 174°54'4 0.4
2014-Oct-10 06:10S 36°47' E 174°54'  
Track history (hours):
 
Tides and Currents Weather Stations Pressure Air Temp Water Temp Dewpoint Dewpoint Depression Visibility Wind Speed Wind Dir Waves Ship Positions

Seamaster

Last reported at 2014-Oct-20 05:12 UTC. Time now 2014-Oct-20 09:59 UTC.
Position S 36°53' E 174°54'.

Length 44 m.

Type: Passenger vessel. MMSI: 512001027.

Date/timePositionNaut miles runAvg speedWind from/ knotsBaromVisibWave heightAir tempDewpointWater temp
2014-Oct-20 05:12S 36°53' E 174°54'1 1.2
2014-Oct-20 04:33S 36°52' E 174°54'1 0.6
2014-Oct-20 02:23S 36°51' E 174°54'1 0.8
2014-Oct-20 01:33S 36°51' E 174°54'0 0.0
2014-Oct-19 22:29S 36°52' E 174°54'1 0.3
2014-Oct-19 19:17S 36°51' E 174°54'1 0.3
2014-Oct-19 17:15S 36°51' E 174°54'0 0.0
2014-Oct-19 04:28S 36°52' E 174°54'0 0.2
2014-Oct-19 02:13S 36°51' E 174°54'0 0.3
2014-Oct-19 01:28S 36°52' E 174°54'0 0.2
2014-Oct-18 23:20S 36°51' E 174°54'1 1.0
2014-Oct-18 22:30S 36°52' E 174°54'3 0.6
2014-Oct-18 17:33S 36°50' E 174°57'3 0.2
2014-Oct-18 04:18S 36°51' E 174°54'2 1.2
2014-Oct-18 02:29S 36°50' E 174°56'2 2.1
2014-Oct-18 01:24S 36°52' E 174°54'1 0.5
2014-Oct-17 23:14S 36°51' E 174°54'1 1.0
2014-Oct-17 22:26S 36°52' E 174°54'0 0.0
2014-Oct-17 04:33S 36°52' E 174°54'1 0.3
2014-Oct-17 02:16S 36°51' E 174°54'2 2.4
2014-Oct-17 01:33S 36°53' E 174°54'2 0.9
2014-Oct-16 23:21S 36°51' E 174°54'1 1.8
2014-Oct-16 22:32S 36°52' E 174°54'1 0.4
2014-Oct-16 20:17S 36°51' E 174°54'1 0.8
2014-Oct-16 19:28S 36°52' E 174°54'1 0.1
2014-Oct-16 01:22S 36°51' E 174°54'1 0.3
2014-Oct-15 23:18S 36°51' E 174°54'0 0.4
2014-Oct-15 22:30S 36°52' E 174°54'0 0.2
2014-Oct-15 20:25S 36°51' E 174°53'1 0.8
2014-Oct-15 19:27S 36°52' E 174°54'1 0.3
2014-Oct-15 17:16S 36°51' E 174°54'0 0.0
2014-Oct-15 02:15S 36°51' E 174°54'1 0.4
2014-Oct-15 00:31S 36°52' E 174°54'8 8.8
2014-Oct-14 23:34S 36°44' E 174°57'2 2.1
2014-Oct-14 22:24S 36°46' E 174°56'6 7.2
2014-Oct-14 21:33S 36°52' E 174°54'0 0.0
2014-Oct-14 19:32S 36°52' E 174°54'6 4.5
2014-Oct-14 18:13S 36°49' E 175°01'6 8.8
2014-Oct-14 17:29S 36°50' E 174°53'3 3.2
2014-Oct-14 16:31S 36°53' E 174°54'1 0.1
2014-Oct-14 07:33S 36°52' E 174°54'5 4.8
2014-Oct-14 06:32S 36°47' E 174°54'1 1.2
2014-Oct-14 05:32S 36°48' E 174°54'4 3.8
2014-Oct-14 04:32S 36°52' E 174°54'3 1.3
2014-Oct-14 02:32S 36°50' E 174°56'3 2.5
2014-Oct-14 01:29S 36°52' E 174°54'3 1.3
2014-Oct-13 23:32S 36°50' E 174°56'3 2.9
2014-Oct-13 22:28S 36°53' E 174°54'3 1.4
2014-Oct-13 20:33S 36°50' E 174°56'3 2.6
2014-Oct-13 19:33S 36°53' E 174°54'6 4.8
2014-Oct-13 18:14S 36°49' E 175°01'7 9.2
2014-Oct-13 17:31S 36°50' E 174°53'3 2.6
2014-Oct-13 16:23S 36°53' E 174°54'0 0.0
2014-Oct-13 04:33S 36°53' E 174°54'3 1.6
2014-Oct-13 02:33S 36°50' E 174°57'3 2.9
2014-Oct-13 01:30S 36°52' E 174°54'0 0.1
2014-Oct-12 22:27S 36°52' E 174°54'1 0.6
2014-Oct-12 20:25S 36°51' E 174°54'1 1.4
2014-Oct-12 19:31S 36°52' E 174°54'6 4.3
2014-Oct-12 18:10S 36°49' E 175°00'6 9.0
2014-Oct-12 17:29S 36°50' E 174°53'1 0.1
2014-Oct-12 04:33S 36°51' E 174°53'1 0.3
2014-Oct-12 02:19S 36°51' E 174°54'1 1.9
2014-Oct-12 01:32S 36°52' E 174°54'1 0.5
2014-Oct-11 23:16S 36°51' E 174°53'1 1.9
2014-Oct-11 22:31S 36°52' E 174°54'2 0.7
2014-Oct-11 20:19S 36°51' E 174°54'2 2.0
2014-Oct-11 19:31S 36°53' E 174°54'2 0.8
2014-Oct-11 17:21S 36°51' E 174°54'1 0.0
2014-Oct-11 04:33S 36°51' E 174°53'6 4.4
2014-Oct-11 03:08S 36°49' E 175°00'6 8.9
2014-Oct-11 02:26S 36°50' E 174°53'2 2.5
2014-Oct-11 01:28S 36°52' E 174°54'1 0.5
2014-Oct-10 23:14S 36°51' E 174°53'1 2.0
2014-Oct-10 22:29S 36°52' E 174°54'3 1.3
2014-Oct-10 20:29S 36°50' E 174°56'3 2.8
2014-Oct-10 19:32S 36°53' E 174°54'1 0.6
2014-Oct-10 17:21S 36°51' E 174°54'4 0.4
2014-Oct-10 06:10S 36°47' E 174°54'  

Dump ship's entire track history